sensor_id;sensor_type;location;lat;lon;timestamp;P1;durP1;ratioP1;P2;durP2;ratioP2
12363;SDS011;6246;50.826;4.712;2023-10-09T00:00:23;4.27;;;3.87;;
12363;SDS011;6246;50.826;4.712;2023-10-09T00:02:58;5.13;;;3.67;;
12363;SDS011;6246;50.826;4.712;2023-10-09T00:05:26;5.40;;;3.80;;
12363;SDS011;6246;50.826;4.712;2023-10-09T00:08:16;3.73;;;3.30;;
12363;SDS011;6246;50.826;4.712;2023-10-09T00:10:47;4.20;;;3.77;;
12363;SDS011;6246;50.826;4.712;2023-10-09T00:13:26;7.23;;;3.70;;
12363;SDS011;6246;50.826;4.712;2023-10-09T00:15:56;4.03;;;3.53;;
12363;SDS011;6246;50.826;4.712;2023-10-09T00:18:33;4.20;;;3.80;;
12363;SDS011;6246;50.826;4.712;2023-10-09T00:20:59;4.33;;;3.77;;
12363;SDS011;6246;50.826;4.712;2023-10-09T00:23:35;6.63;;;3.90;;
12363;SDS011;6246;50.826;4.712;2023-10-09T00:26:02;4.30;;;3.90;;
12363;SDS011;6246;50.826;4.712;2023-10-09T00:28:37;4.20;;;3.70;;
12363;SDS011;6246;50.826;4.712;2023-10-09T00:31:08;5.03;;;3.60;;
12363;SDS011;6246;50.826;4.712;2023-10-09T00:33:40;3.97;;;3.43;;
12363;SDS011;6246;50.826;4.712;2023-10-09T00:36:07;4.40;;;3.90;;
12363;SDS011;6246;50.826;4.712;2023-10-09T00:38:36;4.97;;;3.97;;
12363;SDS011;6246;50.826;4.712;2023-10-09T00:41:16;4.53;;;3.83;;
12363;SDS011;6246;50.826;4.712;2023-10-09T00:43:45;5.07;;;3.90;;
12363;SDS011;6246;50.826;4.712;2023-10-09T00:46:14;4.10;;;3.70;;
12363;SDS011;6246;50.826;4.712;2023-10-09T00:48:44;3.87;;;3.43;;
12363;SDS011;6246;50.826;4.712;2023-10-09T00:51:12;4.07;;;3.67;;
12363;SDS011;6246;50.826;4.712;2023-10-09T00:53:50;4.47;;;3.43;;
12363;SDS011;6246;50.826;4.712;2023-10-09T00:56:17;4.40;;;3.77;;
12363;SDS011;6246;50.826;4.712;2023-10-09T00:58:56;4.70;;;3.80;;
12363;SDS011;6246;50.826;4.712;2023-10-09T01:01:39;5.20;;;3.60;;
12363;SDS011;6246;50.826;4.712;2023-10-09T01:04:06;4.10;;;3.50;;
12363;SDS011;6246;50.826;4.712;2023-10-09T01:06:38;4.43;;;3.63;;
12363;SDS011;6246;50.826;4.712;2023-10-09T01:09:15;4.57;;;3.50;;
12363;SDS011;6246;50.826;4.712;2023-10-09T01:11:48;4.00;;;3.60;;
12363;SDS011;6246;50.826;4.712;2023-10-09T01:14:28;4.93;;;3.80;;
12363;SDS011;6246;50.826;4.712;2023-10-09T01:16:56;4.40;;;3.70;;
12363;SDS011;6246;50.826;4.712;2023-10-09T01:19:22;4.27;;;3.80;;
12363;SDS011;6246;50.826;4.712;2023-10-09T01:21:52;4.27;;;3.57;;
12363;SDS011;6246;50.826;4.712;2023-10-09T01:24:19;3.87;;;3.43;;
12363;SDS011;6246;50.826;4.712;2023-10-09T01:26:45;6.50;;;3.60;;
12363;SDS011;6246;50.826;4.712;2023-10-09T01:31:44;4.30;;;3.90;;
12363;SDS011;6246;50.826;4.712;2023-10-09T01:34:20;4.47;;;3.80;;
12363;SDS011;6246;50.826;4.712;2023-10-09T01:36:49;4.00;;;3.60;;
12363;SDS011;6246;50.826;4.712;2023-10-09T01:39:19;4.53;;;3.50;;
12363;SDS011;6246;50.826;4.712;2023-10-09T01:42:05;4.00;;;3.40;;
12363;SDS011;6246;50.826;4.712;2023-10-09T01:44:32;3.90;;;3.40;;
12363;SDS011;6246;50.826;4.712;2023-10-09T01:47:08;4.73;;;3.80;;
12363;SDS011;6246;50.826;4.712;2023-10-09T01:49:34;3.87;;;3.50;;
12363;SDS011;6246;50.826;4.712;2023-10-09T01:52:02;3.87;;;3.40;;
12363;SDS011;6246;50.826;4.712;2023-10-09T01:54:32;4.63;;;3.97;;
12363;SDS011;6246;50.826;4.712;2023-10-09T01:57:01;4.03;;;3.63;;
12363;SDS011;6246;50.826;4.712;2023-10-09T01:59:36;3.93;;;3.63;;
12363;SDS011;6246;50.826;4.712;2023-10-09T02:02:11;4.20;;;3.53;;
12363;SDS011;6246;50.826;4.712;2023-10-09T02:04:41;4.60;;;3.77;;
12363;SDS011;6246;50.826;4.712;2023-10-09T02:07:07;3.77;;;3.43;;
12363;SDS011;6246;50.826;4.712;2023-10-09T02:09:34;4.60;;;3.93;;
12363;SDS011;6246;50.826;4.712;2023-10-09T02:12:00;3.93;;;3.40;;
12363;SDS011;6246;50.826;4.712;2023-10-09T02:14:27;3.73;;;3.43;;
12363;SDS011;6246;50.826;4.712;2023-10-09T02:16:53;4.50;;;3.60;;
12363;SDS011;6246;50.826;4.712;2023-10-09T02:19:33;4.30;;;3.90;;
12363;SDS011;6246;50.826;4.712;2023-10-09T02:21:59;4.53;;;4.07;;
12363;SDS011;6246;50.826;4.712;2023-10-09T02:24:36;4.10;;;3.70;;
12363;SDS011;6246;50.826;4.712;2023-10-09T02:27:21;4.37;;;3.67;;
12363;SDS011;6246;50.826;4.712;2023-10-09T02:30:10;4.10;;;3.70;;
12363;SDS011;6246;50.826;4.712;2023-10-09T02:32:54;4.23;;;3.40;;
12363;SDS011;6246;50.826;4.712;2023-10-09T02:35:32;3.70;;;3.20;;
12363;SDS011;6246;50.826;4.712;2023-10-09T02:38:07;4.00;;;3.60;;
12363;SDS011;6246;50.826;4.712;2023-10-09T02:40:36;4.13;;;3.50;;
12363;SDS011;6246;50.826;4.712;2023-10-09T02:43:25;5.13;;;3.43;;
12363;SDS011;6246;50.826;4.712;2023-10-09T02:45:51;4.70;;;3.77;;
12363;SDS011;6246;50.826;4.712;2023-10-09T02:48:18;4.10;;;3.10;;
12363;SDS011;6246;50.826;4.712;2023-10-09T02:50:51;3.77;;;3.37;;
12363;SDS011;6246;50.826;4.712;2023-10-09T02:53:19;4.57;;;4.00;;
12363;SDS011;6246;50.826;4.712;2023-10-09T02:55:45;3.97;;;3.13;;
12363;SDS011;6246;50.826;4.712;2023-10-09T02:58:43;4.40;;;3.10;;
12363;SDS011;6246;50.826;4.712;2023-10-09T03:01:13;3.70;;;3.37;;
12363;SDS011;6246;50.826;4.712;2023-10-09T03:03:39;4.37;;;3.80;;
12363;SDS011;6246;50.826;4.712;2023-10-09T03:06:10;3.73;;;3.30;;
12363;SDS011;6246;50.826;4.712;2023-10-09T03:08:37;3.73;;;3.40;;
12363;SDS011;6246;50.826;4.712;2023-10-09T03:11:06;3.87;;;3.50;;
12363;SDS011;6246;50.826;4.712;2023-10-09T03:13:38;4.30;;;3.53;;
12363;SDS011;6246;50.826;4.712;2023-10-09T03:16:07;4.10;;;3.70;;
12363;SDS011;6246;50.826;4.712;2023-10-09T03:18:39;5.30;;;3.93;;
12363;SDS011;6246;50.826;4.712;2023-10-09T03:21:05;4.10;;;3.70;;
12363;SDS011;6246;50.826;4.712;2023-10-09T03:23:31;3.90;;;3.50;;
12363;SDS011;6246;50.826;4.712;2023-10-09T03:25:59;5.77;;;3.40;;
12363;SDS011;6246;50.826;4.712;2023-10-09T03:28:25;3.97;;;3.50;;
12363;SDS011;6246;50.826;4.712;2023-10-09T03:30:51;4.27;;;3.57;;
12363;SDS011;6246;50.826;4.712;2023-10-09T03:33:18;4.30;;;3.60;;
12363;SDS011;6246;50.826;4.712;2023-10-09T03:35:44;6.13;;;3.83;;
12363;SDS011;6246;50.826;4.712;2023-10-09T03:38:10;4.77;;;3.70;;
12363;SDS011;6246;50.826;4.712;2023-10-09T03:40:42;5.87;;;3.70;;
12363;SDS011;6246;50.826;4.712;2023-10-09T03:43:09;4.07;;;3.67;;
12363;SDS011;6246;50.826;4.712;2023-10-09T03:45:39;3.97;;;3.33;;
12363;SDS011;6246;50.826;4.712;2023-10-09T03:48:14;5.37;;;3.80;;
12363;SDS011;6246;50.826;4.712;2023-10-09T03:50:46;4.27;;;3.67;;
12363;SDS011;6246;50.826;4.712;2023-10-09T03:53:12;4.57;;;3.13;;
12363;SDS011;6246;50.826;4.712;2023-10-09T03:55:39;3.83;;;3.43;;
12363;SDS011;6246;50.826;4.712;2023-10-09T03:58:08;3.70;;;3.40;;
12363;SDS011;6246;50.826;4.712;2023-10-09T04:00:36;4.37;;;3.70;;
12363;SDS011;6246;50.826;4.712;2023-10-09T04:03:10;4.10;;;3.70;;
12363;SDS011;6246;50.826;4.712;2023-10-09T04:05:36;5.00;;;3.70;;
12363;SDS011;6246;50.826;4.712;2023-10-09T04:08:07;5.10;;;3.80;;
12363;SDS011;6246;50.826;4.712;2023-10-09T04:10:37;4.10;;;3.70;;
12363;SDS011;6246;50.826;4.712;2023-10-09T04:13:16;4.63;;;3.50;;
12363;SDS011;6246;50.826;4.712;2023-10-09T04:15:47;5.97;;;3.63;;
12363;SDS011;6246;50.826;4.712;2023-10-09T04:18:14;3.63;;;3.30;;
12363;SDS011;6246;50.826;4.712;2023-10-09T04:20:41;4.70;;;3.93;;
12363;SDS011;6246;50.826;4.712;2023-10-09T04:23:26;3.93;;;3.53;;
12363;SDS011;6246;50.826;4.712;2023-10-09T04:26:21;4.70;;;3.60;;
12363;SDS011;6246;50.826;4.712;2023-10-09T04:28:50;4.20;;;3.53;;
12363;SDS011;6246;50.826;4.712;2023-10-09T04:31:18;3.70;;;3.40;;
12363;SDS011;6246;50.826;4.712;2023-10-09T04:33:46;3.90;;;3.47;;
12363;SDS011;6246;50.826;4.712;2023-10-09T04:36:23;4.17;;;3.43;;
12363;SDS011;6246;50.826;4.712;2023-10-09T04:38:53;6.17;;;3.70;;
12363;SDS011;6246;50.826;4.712;2023-10-09T04:41:29;4.20;;;3.60;;
12363;SDS011;6246;50.826;4.712;2023-10-09T04:43:58;4.20;;;3.63;;
12363;SDS011;6246;50.826;4.712;2023-10-09T04:46:46;4.17;;;3.37;;
12363;SDS011;6246;50.826;4.712;2023-10-09T04:49:30;3.83;;;3.30;;
12363;SDS011;6246;50.826;4.712;2023-10-09T04:52:10;4.13;;;3.63;;
12363;SDS011;6246;50.826;4.712;2023-10-09T04:54:54;3.40;;;3.10;;
12363;SDS011;6246;50.826;4.712;2023-10-09T04:57:29;4.70;;;3.70;;
12363;SDS011;6246;50.826;4.712;2023-10-09T05:00:03;4.53;;;3.90;;
12363;SDS011;6246;50.826;4.712;2023-10-09T05:02:32;3.60;;;3.30;;
12363;SDS011;6246;50.826;4.712;2023-10-09T05:05:02;4.33;;;3.60;;
12363;SDS011;6246;50.826;4.712;2023-10-09T05:07:48;4.30;;;3.43;;
12363;SDS011;6246;50.826;4.712;2023-10-09T05:10:20;4.27;;;3.50;;
12363;SDS011;6246;50.826;4.712;2023-10-09T05:12:50;4.70;;;3.43;;
12363;SDS011;6246;50.826;4.712;2023-10-09T05:15:23;4.37;;;3.53;;
12363;SDS011;6246;50.826;4.712;2023-10-09T05:17:54;3.20;;;2.93;;
12363;SDS011;6246;50.826;4.712;2023-10-09T05:20:34;4.83;;;3.70;;
12363;SDS011;6246;50.826;4.712;2023-10-09T05:23:29;3.97;;;3.43;;
12363;SDS011;6246;50.826;4.712;2023-10-09T05:26:09;3.60;;;3.27;;
12363;SDS011;6246;50.826;4.712;2023-10-09T05:28:53;3.63;;;3.33;;
12363;SDS011;6246;50.826;4.712;2023-10-09T05:31:23;3.83;;;3.43;;
12363;SDS011;6246;50.826;4.712;2023-10-09T05:34:07;3.87;;;3.20;;
12363;SDS011;6246;50.826;4.712;2023-10-09T05:36:37;3.73;;;3.20;;
12363;SDS011;6246;50.826;4.712;2023-10-09T05:39:03;6.20;;;3.53;;
12363;SDS011;6246;50.826;4.712;2023-10-09T05:42:02;4.40;;;3.53;;
12363;SDS011;6246;50.826;4.712;2023-10-09T05:44:34;3.77;;;3.47;;
12363;SDS011;6246;50.826;4.712;2023-10-09T05:47:19;3.90;;;3.50;;
12363;SDS011;6246;50.826;4.712;2023-10-09T05:49:54;3.77;;;3.40;;
12363;SDS011;6246;50.826;4.712;2023-10-09T05:52:23;4.27;;;3.63;;
12363;SDS011;6246;50.826;4.712;2023-10-09T05:55:04;4.47;;;3.60;;
12363;SDS011;6246;50.826;4.712;2023-10-09T05:57:49;4.00;;;3.60;;
12363;SDS011;6246;50.826;4.712;2023-10-09T06:00:34;4.53;;;3.80;;
12363;SDS011;6246;50.826;4.712;2023-10-09T06:03:19;3.90;;;3.50;;
12363;SDS011;6246;50.826;4.712;2023-10-09T06:05:45;3.80;;;3.00;;
12363;SDS011;6246;50.826;4.712;2023-10-09T06:08:24;3.40;;;3.10;;
12363;SDS011;6246;50.826;4.712;2023-10-09T06:10:52;4.73;;;3.70;;
12363;SDS011;6246;50.826;4.712;2023-10-09T06:13:36;3.50;;;3.20;;
12363;SDS011;6246;50.826;4.712;2023-10-09T06:16:03;3.57;;;3.27;;
12363;SDS011;6246;50.826;4.712;2023-10-09T06:18:48;4.23;;;3.60;;
12363;SDS011;6246;50.826;4.712;2023-10-09T06:21:32;4.27;;;3.57;;
12363;SDS011;6246;50.826;4.712;2023-10-09T06:24:05;3.50;;;3.20;;
12363;SDS011;6246;50.826;4.712;2023-10-09T06:26:40;4.70;;;3.57;;
12363;SDS011;6246;50.826;4.712;2023-10-09T06:29:16;4.00;;;3.60;;
12363;SDS011;6246;50.826;4.712;2023-10-09T06:31:58;4.77;;;3.50;;
12363;SDS011;6246;50.826;4.712;2023-10-09T06:34:41;3.80;;;3.40;;
12363;SDS011;6246;50.826;4.712;2023-10-09T06:37:10;4.20;;;3.63;;
12363;SDS011;6246;50.826;4.712;2023-10-09T06:39:59;4.30;;;3.73;;
12363;SDS011;6246;50.826;4.712;2023-10-09T06:42:54;4.33;;;3.40;;
12363;SDS011;6246;50.826;4.712;2023-10-09T06:45:20;4.33;;;3.43;;
12363;SDS011;6246;50.826;4.712;2023-10-09T06:47:47;5.53;;;3.40;;
12363;SDS011;6246;50.826;4.712;2023-10-09T06:50:34;5.20;;;3.80;;
12363;SDS011;6246;50.826;4.712;2023-10-09T06:53:18;4.67;;;3.67;;
12363;SDS011;6246;50.826;4.712;2023-10-09T06:55:45;4.90;;;3.60;;
12363;SDS011;6246;50.826;4.712;2023-10-09T06:58:16;4.07;;;3.53;;
12363;SDS011;6246;50.826;4.712;2023-10-09T07:00:51;5.23;;;3.60;;
12363;SDS011;6246;50.826;4.712;2023-10-09T07:03:24;5.80;;;3.03;;
12363;SDS011;6246;50.826;4.712;2023-10-09T07:06:07;3.53;;;3.20;;
12363;SDS011;6246;50.826;4.712;2023-10-09T07:08:55;4.70;;;3.30;;
12363;SDS011;6246;50.826;4.712;2023-10-09T07:14:05;5.63;;;3.63;;
12363;SDS011;6246;50.826;4.712;2023-10-09T07:16:32;4.80;;;3.87;;
12363;SDS011;6246;50.826;4.712;2023-10-09T07:19:06;3.70;;;3.23;;
12363;SDS011;6246;50.826;4.712;2023-10-09T07:21:51;3.97;;;3.37;;
12363;SDS011;6246;50.826;4.712;2023-10-09T07:24:19;3.50;;;3.20;;
12363;SDS011;6246;50.826;4.712;2023-10-09T07:26:49;4.13;;;3.43;;
12363;SDS011;6246;50.826;4.712;2023-10-09T07:29:19;4.63;;;3.10;;
12363;SDS011;6246;50.826;4.712;2023-10-09T07:31:48;3.83;;;3.53;;
12363;SDS011;6246;50.826;4.712;2023-10-09T07:34:22;3.73;;;3.30;;
12363;SDS011;6246;50.826;4.712;2023-10-09T07:37:08;4.00;;;3.60;;
12363;SDS011;6246;50.826;4.712;2023-10-09T07:39:34;3.47;;;3.10;;
12363;SDS011;6246;50.826;4.712;2023-10-09T07:42:09;4.73;;;3.50;;
12363;SDS011;6246;50.826;4.712;2023-10-09T07:44:51;3.40;;;3.10;;
12363;SDS011;6246;50.826;4.712;2023-10-09T07:47:22;4.10;;;3.30;;
12363;SDS011;6246;50.826;4.712;2023-10-09T07:49:58;4.17;;;3.70;;
12363;SDS011;6246;50.826;4.712;2023-10-09T07:52:24;3.50;;;3.10;;
12363;SDS011;6246;50.826;4.712;2023-10-09T07:54:51;4.23;;;3.83;;
12363;SDS011;6246;50.826;4.712;2023-10-09T07:57:27;4.47;;;3.40;;
12363;SDS011;6246;50.826;4.712;2023-10-09T08:00:03;5.47;;;3.57;;
12363;SDS011;6246;50.826;4.712;2023-10-09T08:02:37;4.73;;;3.43;;
12363;SDS011;6246;50.826;4.712;2023-10-09T08:05:03;4.30;;;3.40;;
12363;SDS011;6246;50.826;4.712;2023-10-09T08:07:32;3.97;;;3.10;;
12363;SDS011;6246;50.826;4.712;2023-10-09T08:10:02;4.23;;;3.43;;
12363;SDS011;6246;50.826;4.712;2023-10-09T08:12:44;4.60;;;3.83;;
12363;SDS011;6246;50.826;4.712;2023-10-09T08:15:22;4.33;;;3.37;;
12363;SDS011;6246;50.826;4.712;2023-10-09T08:17:55;3.50;;;3.20;;
12363;SDS011;6246;50.826;4.712;2023-10-09T08:20:24;3.77;;;3.20;;
12363;SDS011;6246;50.826;4.712;2023-10-09T08:22:51;3.23;;;2.93;;
12363;SDS011;6246;50.826;4.712;2023-10-09T08:25:20;4.57;;;3.60;;
12363;SDS011;6246;50.826;4.712;2023-10-09T08:27:54;3.83;;;3.47;;
12363;SDS011;6246;50.826;4.712;2023-10-09T08:30:20;3.73;;;3.43;;
12363;SDS011;6246;50.826;4.712;2023-10-09T08:32:47;4.43;;;3.90;;
12363;SDS011;6246;50.826;4.712;2023-10-09T08:35:30;3.73;;;3.40;;
12363;SDS011;6246;50.826;4.712;2023-10-09T08:38:01;4.67;;;3.73;;
12363;SDS011;6246;50.826;4.712;2023-10-09T08:40:34;5.83;;;3.67;;
12363;SDS011;6246;50.826;4.712;2023-10-09T08:43:17;3.87;;;3.47;;
12363;SDS011;6246;50.826;4.712;2023-10-09T08:45:46;3.73;;;3.30;;
12363;SDS011;6246;50.826;4.712;2023-10-09T08:48:13;3.57;;;3.27;;
12363;SDS011;6246;50.826;4.712;2023-10-09T08:50:47;4.60;;;3.43;;
12363;SDS011;6246;50.826;4.712;2023-10-09T08:53:15;4.03;;;3.50;;
12363;SDS011;6246;50.826;4.712;2023-10-09T08:55:41;4.40;;;3.60;;
12363;SDS011;6246;50.826;4.712;2023-10-09T08:58:08;3.13;;;2.83;;
12363;SDS011;6246;50.826;4.712;2023-10-09T09:00:46;3.77;;;3.07;;
12363;SDS011;6246;50.826;4.712;2023-10-09T09:03:15;4.57;;;3.70;;
12363;SDS011;6246;50.826;4.712;2023-10-09T09:06:02;6.03;;;3.87;;
12363;SDS011;6246;50.826;4.712;2023-10-09T09:08:29;4.47;;;3.33;;
12363;SDS011;6246;50.826;4.712;2023-10-09T09:13:37;4.37;;;3.10;;
12363;SDS011;6246;50.826;4.712;2023-10-09T09:16:03;3.77;;;3.37;;
12363;SDS011;6246;50.826;4.712;2023-10-09T09:18:29;3.87;;;3.33;;
12363;SDS011;6246;50.826;4.712;2023-10-09T09:21:01;3.97;;;2.90;;
12363;SDS011;6246;50.826;4.712;2023-10-09T09:23:29;3.70;;;3.33;;
12363;SDS011;6246;50.826;4.712;2023-10-09T09:25:55;5.13;;;3.73;;
12363;SDS011;6246;50.826;4.712;2023-10-09T09:28:25;3.73;;;3.40;;
12363;SDS011;6246;50.826;4.712;2023-10-09T09:31:07;4.00;;;3.63;;
12363;SDS011;6246;50.826;4.712;2023-10-09T09:33:38;4.03;;;3.50;;
12363;SDS011;6246;50.826;4.712;2023-10-09T09:36:10;4.00;;;3.20;;
12363;SDS011;6246;50.826;4.712;2023-10-09T09:38:36;3.63;;;3.27;;
12363;SDS011;6246;50.826;4.712;2023-10-09T09:41:16;4.80;;;3.50;;
12363;SDS011;6246;50.826;4.712;2023-10-09T09:43:58;4.10;;;3.30;;
12363;SDS011;6246;50.826;4.712;2023-10-09T09:46:33;4.47;;;3.53;;
12363;SDS011;6246;50.826;4.712;2023-10-09T09:49:06;3.63;;;3.33;;
12363;SDS011;6246;50.826;4.712;2023-10-09T09:51:47;4.43;;;3.20;;
12363;SDS011;6246;50.826;4.712;2023-10-09T09:54:16;4.23;;;3.57;;
12363;SDS011;6246;50.826;4.712;2023-10-09T09:56:43;3.70;;;3.37;;
12363;SDS011;6246;50.826;4.712;2023-10-09T09:59:17;4.27;;;3.83;;
12363;SDS011;6246;50.826;4.712;2023-10-09T10:02:03;4.30;;;3.67;;
12363;SDS011;6246;50.826;4.712;2023-10-09T10:04:33;3.00;;;2.80;;
12363;SDS011;6246;50.826;4.712;2023-10-09T10:07:01;3.93;;;3.53;;
12363;SDS011;6246;50.826;4.712;2023-10-09T10:09:34;3.63;;;2.67;;
12363;SDS011;6246;50.826;4.712;2023-10-09T10:12:04;3.07;;;2.83;;
12363;SDS011;6246;50.826;4.712;2023-10-09T10:14:52;3.73;;;3.17;;
12363;SDS011;6246;50.826;4.712;2023-10-09T10:17:22;3.90;;;3.30;;
12363;SDS011;6246;50.826;4.712;2023-10-09T10:22:46;3.90;;;3.13;;
12363;SDS011;6246;50.826;4.712;2023-10-09T10:25:34;3.97;;;3.27;;
12363;SDS011;6246;50.826;4.712;2023-10-09T10:28:21;4.67;;;3.00;;
12363;SDS011;6246;50.826;4.712;2023-10-09T10:31:01;4.37;;;3.13;;
12363;SDS011;6246;50.826;4.712;2023-10-09T10:34:11;3.70;;;3.40;;
12363;SDS011;6246;50.826;4.712;2023-10-09T10:36:21;3.53;;;3.03;;
12363;SDS011;6246;50.826;4.712;2023-10-09T10:39:02;4.00;;;3.60;;
12363;SDS011;6246;50.826;4.712;2023-10-09T10:44:28;3.60;;;3.30;;
12363;SDS011;6246;50.826;4.712;2023-10-09T10:47:10;3.70;;;3.27;;
12363;SDS011;6246;50.826;4.712;2023-10-09T10:49:53;3.60;;;3.30;;
12363;SDS011;6246;50.826;4.712;2023-10-09T10:52:26;2.93;;;2.70;;
12363;SDS011;6246;50.826;4.712;2023-10-09T10:55:22;4.77;;;3.50;;
12363;SDS011;6246;50.826;4.712;2023-10-09T10:58:00;3.23;;;2.93;;
12363;SDS011;6246;50.826;4.712;2023-10-09T11:00:35;4.40;;;3.30;;
12363;SDS011;6246;50.826;4.712;2023-10-09T11:03:20;4.10;;;3.40;;
12363;SDS011;6246;50.826;4.712;2023-10-09T11:06:00;3.97;;;3.13;;
12363;SDS011;6246;50.826;4.712;2023-10-09T11:08:42;3.37;;;2.90;;
12363;SDS011;6246;50.826;4.712;2023-10-09T11:11:19;4.07;;;3.50;;
12363;SDS011;6246;50.826;4.712;2023-10-09T11:14:09;3.97;;;3.43;;
12363;SDS011;6246;50.826;4.712;2023-10-09T11:16:39;3.70;;;3.30;;
12363;SDS011;6246;50.826;4.712;2023-10-09T11:19:12;3.77;;;3.23;;
12363;SDS011;6246;50.826;4.712;2023-10-09T11:21:54;3.17;;;2.87;;
12363;SDS011;6246;50.826;4.712;2023-10-09T11:24:34;3.20;;;3.00;;
12363;SDS011;6246;50.826;4.712;2023-10-09T11:27:01;4.47;;;2.90;;
12363;SDS011;6246;50.826;4.712;2023-10-09T11:29:31;3.70;;;3.20;;
12363;SDS011;6246;50.826;4.712;2023-10-09T11:32:28;3.87;;;3.23;;
12363;SDS011;6246;50.826;4.712;2023-10-09T11:35:10;3.03;;;2.83;;
12363;SDS011;6246;50.826;4.712;2023-10-09T11:37:39;3.53;;;3.23;;
12363;SDS011;6246;50.826;4.712;2023-10-09T11:40:07;4.43;;;3.20;;
12363;SDS011;6246;50.826;4.712;2023-10-09T11:42:49;3.23;;;2.93;;
12363;SDS011;6246;50.826;4.712;2023-10-09T11:45:22;3.93;;;3.53;;
12363;SDS011;6246;50.826;4.712;2023-10-09T11:47:50;4.13;;;3.30;;
12363;SDS011;6246;50.826;4.712;2023-10-09T11:50:44;3.63;;;3.07;;
12363;SDS011;6246;50.826;4.712;2023-10-09T11:53:43;3.70;;;2.97;;
12363;SDS011;6246;50.826;4.712;2023-10-09T11:56:11;3.43;;;3.13;;
12363;SDS011;6246;50.826;4.712;2023-10-09T11:58:41;3.33;;;3.03;;
12363;SDS011;6246;50.826;4.712;2023-10-09T12:01:11;3.73;;;2.90;;
12363;SDS011;6246;50.826;4.712;2023-10-09T12:03:47;3.70;;;3.00;;
12363;SDS011;6246;50.826;4.712;2023-10-09T12:06:19;3.40;;;3.10;;
12363;SDS011;6246;50.826;4.712;2023-10-09T12:08:47;3.33;;;3.03;;
12363;SDS011;6246;50.826;4.712;2023-10-09T12:11:14;3.83;;;3.00;;
12363;SDS011;6246;50.826;4.712;2023-10-09T12:13:47;3.27;;;2.97;;
12363;SDS011;6246;50.826;4.712;2023-10-09T12:16:13;3.60;;;3.10;;
12363;SDS011;6246;50.826;4.712;2023-10-09T12:18:40;3.20;;;2.87;;
12363;SDS011;6246;50.826;4.712;2023-10-09T12:21:07;3.70;;;3.20;;
12363;SDS011;6246;50.826;4.712;2023-10-09T12:23:33;3.10;;;2.90;;
12363;SDS011;6246;50.826;4.712;2023-10-09T12:26:01;3.77;;;2.87;;
12363;SDS011;6246;50.826;4.712;2023-10-09T12:28:27;3.30;;;3.00;;
12363;SDS011;6246;50.826;4.712;2023-10-09T12:30:53;2.87;;;2.67;;
12363;SDS011;6246;50.826;4.712;2023-10-09T12:33:20;3.47;;;3.17;;
12363;SDS011;6246;50.826;4.712;2023-10-09T12:35:52;3.35;;;3.05;;
12363;SDS011;6246;50.826;4.712;2023-10-09T12:38:24;3.47;;;3.17;;
12363;SDS011;6246;50.826;4.712;2023-10-09T12:41:05;3.13;;;2.83;;
12363;SDS011;6246;50.826;4.712;2023-10-09T12:43:47;3.10;;;2.80;;
12363;SDS011;6246;50.826;4.712;2023-10-09T12:46:14;2.70;;;2.50;;
12363;SDS011;6246;50.826;4.712;2023-10-09T12:48:44;3.50;;;3.17;;
12363;SDS011;6246;50.826;4.712;2023-10-09T12:51:13;3.57;;;3.27;;
12363;SDS011;6246;50.826;4.712;2023-10-09T12:53:44;3.50;;;3.17;;
12363;SDS011;6246;50.826;4.712;2023-10-09T12:56:11;4.13;;;3.27;;
12363;SDS011;6246;50.826;4.712;2023-10-09T12:58:37;3.27;;;2.97;;
12363;SDS011;6246;50.826;4.712;2023-10-09T13:01:04;3.27;;;2.67;;
12363;SDS011;6246;50.826;4.712;2023-10-09T13:03:37;3.30;;;3.00;;
12363;SDS011;6246;50.826;4.712;2023-10-09T13:06:03;3.97;;;3.47;;
12363;SDS011;6246;50.826;4.712;2023-10-09T13:08:36;3.43;;;3.13;;
12363;SDS011;6246;50.826;4.712;2023-10-09T13:11:08;3.13;;;2.87;;
12363;SDS011;6246;50.826;4.712;2023-10-09T13:13:42;3.77;;;3.10;;
12363;SDS011;6246;50.826;4.712;2023-10-09T13:16:15;3.30;;;3.00;;
12363;SDS011;6246;50.826;4.712;2023-10-09T13:18:48;3.40;;;3.10;;
12363;SDS011;6246;50.826;4.712;2023-10-09T13:21:15;2.97;;;2.73;;
12363;SDS011;6246;50.826;4.712;2023-10-09T13:23:41;3.27;;;2.80;;
12363;SDS011;6246;50.826;4.712;2023-10-09T13:26:11;3.00;;;2.80;;
12363;SDS011;6246;50.826;4.712;2023-10-09T13:28:50;3.53;;;3.00;;
12363;SDS011;6246;50.826;4.712;2023-10-09T13:31:16;3.30;;;3.00;;
12363;SDS011;6246;50.826;4.712;2023-10-09T13:33:43;2.60;;;2.40;;
12363;SDS011;6246;50.826;4.712;2023-10-09T13:36:09;3.77;;;3.23;;
12363;SDS011;6246;50.826;4.712;2023-10-09T13:38:51;3.07;;;2.77;;
12363;SDS011;6246;50.826;4.712;2023-10-09T13:41:18;3.87;;;3.00;;
12363;SDS011;6246;50.826;4.712;2023-10-09T13:43:44;3.00;;;2.67;;
12363;SDS011;6246;50.826;4.712;2023-10-09T13:46:10;3.40;;;2.67;;
12363;SDS011;6246;50.826;4.712;2023-10-09T13:48:37;3.10;;;2.80;;
12363;SDS011;6246;50.826;4.712;2023-10-09T13:51:09;3.47;;;2.90;;
12363;SDS011;6246;50.826;4.712;2023-10-09T13:53:42;3.40;;;3.10;;
12363;SDS011;6246;50.826;4.712;2023-10-09T13:56:11;3.20;;;2.90;;
12363;SDS011;6246;50.826;4.712;2023-10-09T13:58:40;2.90;;;2.70;;
12363;SDS011;6246;50.826;4.712;2023-10-09T14:01:07;2.97;;;2.67;;
12363;SDS011;6246;50.826;4.712;2023-10-09T14:03:34;3.27;;;2.97;;
12363;SDS011;6246;50.826;4.712;2023-10-09T14:06:00;3.50;;;2.70;;
12363;SDS011;6246;50.826;4.712;2023-10-09T14:08:35;3.03;;;2.80;;
12363;SDS011;6246;50.826;4.712;2023-10-09T14:11:07;3.40;;;2.97;;
12363;SDS011;6246;50.826;4.712;2023-10-09T14:13:38;2.87;;;2.63;;
12363;SDS011;6246;50.826;4.712;2023-10-09T14:16:04;3.30;;;3.00;;
12363;SDS011;6246;50.826;4.712;2023-10-09T14:18:31;3.17;;;2.90;;
12363;SDS011;6246;50.826;4.712;2023-10-09T14:21:00;2.93;;;2.73;;
12363;SDS011;6246;50.826;4.712;2023-10-09T14:23:29;3.67;;;3.23;;
12363;SDS011;6246;50.826;4.712;2023-10-09T14:25:59;3.73;;;2.90;;
12363;SDS011;6246;50.826;4.712;2023-10-09T14:28:27;3.20;;;2.90;;
12363;SDS011;6246;50.826;4.712;2023-10-09T14:30:54;2.90;;;2.70;;
12363;SDS011;6246;50.826;4.712;2023-10-09T14:33:25;3.33;;;3.03;;
12363;SDS011;6246;50.826;4.712;2023-10-09T14:35:54;3.67;;;2.63;;
12363;SDS011;6246;50.826;4.712;2023-10-09T14:38:20;3.17;;;2.87;;
12363;SDS011;6246;50.826;4.712;2023-10-09T14:40:52;3.07;;;2.77;;
12363;SDS011;6246;50.826;4.712;2023-10-09T14:43:22;3.50;;;2.93;;
12363;SDS011;6246;50.826;4.712;2023-10-09T14:45:53;2.70;;;2.50;;
12363;SDS011;6246;50.826;4.712;2023-10-09T14:48:19;3.13;;;2.80;;
12363;SDS011;6246;50.826;4.712;2023-10-09T14:50:51;3.13;;;2.83;;
12363;SDS011;6246;50.826;4.712;2023-10-09T14:53:29;3.20;;;2.73;;
12363;SDS011;6246;50.826;4.712;2023-10-09T14:55:55;3.47;;;3.13;;
12363;SDS011;6246;50.826;4.712;2023-10-09T14:58:22;3.00;;;2.70;;
12363;SDS011;6246;50.826;4.712;2023-10-09T15:00:53;3.10;;;2.90;;
12363;SDS011;6246;50.826;4.712;2023-10-09T15:03:19;3.93;;;3.00;;
12363;SDS011;6246;50.826;4.712;2023-10-09T15:05:47;3.00;;;2.70;;
12363;SDS011;6246;50.826;4.712;2023-10-09T15:08:13;3.47;;;3.17;;
12363;SDS011;6246;50.826;4.712;2023-10-09T15:10:46;3.00;;;2.80;;
12363;SDS011;6246;50.826;4.712;2023-10-09T15:13:13;4.20;;;3.23;;
12363;SDS011;6246;50.826;4.712;2023-10-09T15:15:43;2.80;;;2.60;;
12363;SDS011;6246;50.826;4.712;2023-10-09T15:18:09;2.80;;;2.60;;
12363;SDS011;6246;50.826;4.712;2023-10-09T15:20:38;2.80;;;2.53;;
12363;SDS011;6246;50.826;4.712;2023-10-09T15:23:05;2.83;;;2.63;;
12363;SDS011;6246;50.826;4.712;2023-10-09T15:25:31;3.07;;;2.83;;
12363;SDS011;6246;50.826;4.712;2023-10-09T15:27:59;2.97;;;2.73;;
12363;SDS011;6246;50.826;4.712;2023-10-09T15:30:25;3.60;;;3.30;;
12363;SDS011;6246;50.826;4.712;2023-10-09T15:32:53;3.27;;;2.97;;
12363;SDS011;6246;50.826;4.712;2023-10-09T15:35:22;3.20;;;2.87;;
12363;SDS011;6246;50.826;4.712;2023-10-09T15:37:48;3.30;;;3.00;;
12363;SDS011;6246;50.826;4.712;2023-10-09T15:40:17;3.27;;;2.97;;
12363;SDS011;6246;50.826;4.712;2023-10-09T15:42:44;3.40;;;3.10;;
12363;SDS011;6246;50.826;4.712;2023-10-09T15:45:21;2.70;;;2.50;;
12363;SDS011;6246;50.826;4.712;2023-10-09T15:47:47;3.20;;;2.90;;